sensor_id;sensor_type;location;lat;lon;timestamp;P1;P2;P0
31330;PMS5003;34067;39.548;-76.088;2023-05-01T00:01:05;1;1;
31330;PMS5003;34067;39.548;-76.088;2023-05-01T00:03:33;1;1;
31330;PMS5003;34067;39.548;-76.088;2023-05-01T00:06:02;1;1;
31330;PMS5003;34067;39.548;-76.088;2023-05-01T00:08:31;1;1;
31330;PMS5003;34067;39.548;-76.088;2023-05-01T00:11:01;0;0;
31330;PMS5003;34067;39.548;-76.088;2023-05-01T00:13:30;0;0;
31330;PMS5003;34067;39.548;-76.088;2023-05-01T00:15:58;0;0;
31330;PMS5003;34067;39.548;-76.088;2023-05-01T00:18:26;0;0;
31330;PMS5003;34067;39.548;-76.088;2023-05-01T00:20:56;1;1;
31330;PMS5003;34067;39.548;-76.088;2023-05-01T00:23:25;5;5;
31330;PMS5003;34067;39.548;-76.088;2023-05-01T00:25:53;6;6;
31330;PMS5003;34067;39.548;-76.088;2023-05-01T00:28:21;13;13;
31330;PMS5003;34067;39.548;-76.088;2023-05-01T00:30:49;12;12;
31330;PMS5003;34067;39.548;-76.088;2023-05-01T00:33:17;7;7;
31330;PMS5003;34067;39.548;-76.088;2023-05-01T00:35:45;12;12;
31330;PMS5003;34067;39.548;-76.088;2023-05-01T00:38:13;30;30;
31330;PMS5003;34067;39.548;-76.088;2023-05-01T00:40:41;37;37;
31330;PMS5003;34067;39.548;-76.088;2023-05-01T00:43:09;29;29;
31330;PMS5003;34067;39.548;-76.088;2023-05-01T00:45:38;47;47;
31330;PMS5003;34067;39.548;-76.088;2023-05-01T00:48:09;1;1;
31330;PMS5003;34067;39.548;-76.088;2023-05-01T00:50:37;0;0;
31330;PMS5003;34067;39.548;-76.088;2023-05-01T00:53:05;0;0;
31330;PMS5003;34067;39.548;-76.088;2023-05-01T00:55:33;0;0;
31330;PMS5003;34067;39.548;-76.088;2023-05-01T00:58:01;1;1;
31330;PMS5003;34067;39.548;-76.088;2023-05-01T01:00:30;1;0;
31330;PMS5003;34067;39.548;-76.088;2023-05-01T01:02:58;0;0;
31330;PMS5003;34067;39.548;-76.088;2023-05-01T01:05:26;0;0;
31330;PMS5003;34067;39.548;-76.088;2023-05-01T01:08:00;1;1;
31330;PMS5003;34067;39.548;-76.088;2023-05-01T01:10:42;1;1;
31330;PMS5003;34067;39.548;-76.088;2023-05-01T01:13:21;1;1;
31330;PMS5003;34067;39.548;-76.088;2023-05-01T01:16:03;1;0;
31330;PMS5003;34067;39.548;-76.088;2023-05-01T01:18:40;1;1;
31330;PMS5003;34067;39.548;-76.088;2023-05-01T01:21:15;0;0;
31330;PMS5003;34067;39.548;-76.088;2023-05-01T01:24:02;0;0;
31330;PMS5003;34067;39.548;-76.088;2023-05-01T01:26:51;1;1;
31330;PMS5003;34067;39.548;-76.088;2023-05-01T01:30:01;0;0;
31330;PMS5003;34067;39.548;-76.088;2023-05-01T01:32:58;0;0;
31330;PMS5003;34067;39.548;-76.088;2023-05-01T01:35:45;1;1;
31330;PMS5003;34067;39.548;-76.088;2023-05-01T01:38:22;1;1;
31330;PMS5003;34067;39.548;-76.088;2023-05-01T01:40:57;0;0;
31330;PMS5003;34067;39.548;-76.088;2023-05-01T01:43:31;0;0;
31330;PMS5003;34067;39.548;-76.088;2023-05-01T01:46:04;1;1;
31330;PMS5003;34067;39.548;-76.088;2023-05-01T01:48:35;0;0;
31330;PMS5003;34067;39.548;-76.088;2023-05-01T01:51:07;0;0;
31330;PMS5003;34067;39.548;-76.088;2023-05-01T01:53:39;1;1;
31330;PMS5003;34067;39.548;-76.088;2023-05-01T01:56:10;1;1;
31330;PMS5003;34067;39.548;-76.088;2023-05-01T01:58:40;1;1;
31330;PMS5003;34067;39.548;-76.088;2023-05-01T02:01:11;0;0;
31330;PMS5003;34067;39.548;-76.088;2023-05-01T02:03:41;1;1;
31330;PMS5003;34067;39.548;-76.088;2023-05-01T02:06:12;1;1;
31330;PMS5003;34067;39.548;-76.088;2023-05-01T02:08:41;2;2;
31330;PMS5003;34067;39.548;-76.088;2023-05-01T02:11:13;2;2;
31330;PMS5003;34067;39.548;-76.088;2023-05-01T02:13:44;2;2;
31330;PMS5003;34067;39.548;-76.088;2023-05-01T02:16:13;2;2;
31330;PMS5003;34067;39.548;-76.088;2023-05-01T02:18:42;3;3;
31330;PMS5003;34067;39.548;-76.088;2023-05-01T02:21:11;4;4;
31330;PMS5003;34067;39.548;-76.088;2023-05-01T02:23:41;4;4;
31330;PMS5003;34067;39.548;-76.088;2023-05-01T02:26:10;2;2;
31330;PMS5003;34067;39.548;-76.088;2023-05-01T02:28:42;3;3;
31330;PMS5003;34067;39.548;-76.088;2023-05-01T02:31:10;3;3;
31330;PMS5003;34067;39.548;-76.088;2023-05-01T02:33:38;3;3;
31330;PMS5003;34067;39.548;-76.088;2023-05-01T02:36:06;5;4;
31330;PMS5003;34067;39.548;-76.088;2023-05-01T02:38:34;5;4;
31330;PMS5003;34067;39.548;-76.088;2023-05-01T02:41:02;3;3;
31330;PMS5003;34067;39.548;-76.088;2023-05-01T02:43:31;5;4;
31330;PMS5003;34067;39.548;-76.088;2023-05-01T02:46:01;5;4;
31330;PMS5003;34067;39.548;-76.088;2023-05-01T02:48:31;4;4;
31330;PMS5003;34067;39.548;-76.088;2023-05-01T02:51:01;3;3;
31330;PMS5003;34067;39.548;-76.088;2023-05-01T02:53:30;2;2;
31330;PMS5003;34067;39.548;-76.088;2023-05-01T02:55:59;4;4;
31330;PMS5003;34067;39.548;-76.088;2023-05-01T02:58:30;2;2;
31330;PMS5003;34067;39.548;-76.088;2023-05-01T03:00:58;4;4;
31330;PMS5003;34067;39.548;-76.088;2023-05-01T03:03:26;3;3;
31330;PMS5003;34067;39.548;-76.088;2023-05-01T03:05:55;3;3;
31330;PMS5003;34067;39.548;-76.088;2023-05-01T03:08:22;3;3;
31330;PMS5003;34067;39.548;-76.088;2023-05-01T03:10:51;3;3;
31330;PMS5003;34067;39.548;-76.088;2023-05-01T03:13:19;3;3;
31330;PMS5003;34067;39.548;-76.088;2023-05-01T03:15:47;3;3;
31330;PMS5003;34067;39.548;-76.088;2023-05-01T03:18:15;3;3;
31330;PMS5003;34067;39.548;-76.088;2023-05-01T03:20:50;3;3;
31330;PMS5003;34067;39.548;-76.088;2023-05-01T03:23:18;3;3;
31330;PMS5003;34067;39.548;-76.088;2023-05-01T03:25:46;2;2;
31330;PMS5003;34067;39.548;-76.088;2023-05-01T03:28:14;2;2;
31330;PMS5003;34067;39.548;-76.088;2023-05-01T03:30:43;3;3;
31330;PMS5003;34067;39.548;-76.088;2023-05-01T03:33:12;3;3;
31330;PMS5003;34067;39.548;-76.088;2023-05-01T03:35:39;2;2;
31330;PMS5003;34067;39.548;-76.088;2023-05-01T03:38:07;3;3;
31330;PMS5003;34067;39.548;-76.088;2023-05-01T03:40:35;3;3;
31330;PMS5003;34067;39.548;-76.088;2023-05-01T03:43:03;2;2;
31330;PMS5003;34067;39.548;-76.088;2023-05-01T03:45:31;2;2;
31330;PMS5003;34067;39.548;-76.088;2023-05-01T03:47:59;2;2;
31330;PMS5003;34067;39.548;-76.088;2023-05-01T03:50:27;2;2;
31330;PMS5003;34067;39.548;-76.088;2023-05-01T03:52:56;3;3;
31330;PMS5003;34067;39.548;-76.088;2023-05-01T03:55:24;3;3;
31330;PMS5003;34067;39.548;-76.088;2023-05-01T03:57:52;1;1;
31330;PMS5003;34067;39.548;-76.088;2023-05-01T04:00:20;2;2;
31330;PMS5003;34067;39.548;-76.088;2023-05-01T04:02:48;2;2;
31330;PMS5003;34067;39.548;-76.088;2023-05-01T04:05:16;3;3;
31330;PMS5003;34067;39.548;-76.088;2023-05-01T04:07:44;4;3;
31330;PMS5003;34067;39.548;-76.088;2023-05-01T04:10:12;3;3;
31330;PMS5003;34067;39.548;-76.088;2023-05-01T04:12:40;2;2;
31330;PMS5003;34067;39.548;-76.088;2023-05-01T04:15:09;2;2;
31330;PMS5003;34067;39.548;-76.088;2023-05-01T04:17:38;3;3;
31330;PMS5003;34067;39.548;-76.088;2023-05-01T04:20:06;2;2;
31330;PMS5003;34067;39.548;-76.088;2023-05-01T04:22:35;3;3;
31330;PMS5003;34067;39.548;-76.088;2023-05-01T04:25:03;2;2;
31330;PMS5003;34067;39.548;-76.088;2023-05-01T04:27:31;1;1;
31330;PMS5003;34067;39.548;-76.088;2023-05-01T04:29:59;3;3;
31330;PMS5003;34067;39.548;-76.088;2023-05-01T04:32:27;2;2;
31330;PMS5003;34067;39.548;-76.088;2023-05-01T04:34:55;3;2;
31330;PMS5003;34067;39.548;-76.088;2023-05-01T04:37:23;2;2;
31330;PMS5003;34067;39.548;-76.088;2023-05-01T04:39:51;3;2;
31330;PMS5003;34067;39.548;-76.088;2023-05-01T04:42:19;2;2;
31330;PMS5003;34067;39.548;-76.088;2023-05-01T04:44:47;3;3;
31330;PMS5003;34067;39.548;-76.088;2023-05-01T04:47:15;0;0;
31330;PMS5003;34067;39.548;-76.088;2023-05-01T04:49:43;2;2;
31330;PMS5003;34067;39.548;-76.088;2023-05-01T04:52:12;2;1;
31330;PMS5003;34067;39.548;-76.088;2023-05-01T04:54:40;3;3;
31330;PMS5003;34067;39.548;-76.088;2023-05-01T04:57:08;2;2;
31330;PMS5003;34067;39.548;-76.088;2023-05-01T04:59:36;2;2;
31330;PMS5003;34067;39.548;-76.088;2023-05-01T05:03:09;3;3;
31330;PMS5003;34067;39.548;-76.088;2023-05-01T05:05:37;2;2;
31330;PMS5003;34067;39.548;-76.088;2023-05-01T05:08:05;2;2;
31330;PMS5003;34067;39.548;-76.088;2023-05-01T05:10:33;2;2;
31330;PMS5003;34067;39.548;-76.088;2023-05-01T05:13:01;3;3;
31330;PMS5003;34067;39.548;-76.088;2023-05-01T05:15:29;2;2;
31330;PMS5003;34067;39.548;-76.088;2023-05-01T05:17:58;2;2;
31330;PMS5003;34067;39.548;-76.088;2023-05-01T05:20:26;2;2;
31330;PMS5003;34067;39.548;-76.088;2023-05-01T05:22:54;2;2;
31330;PMS5003;34067;39.548;-76.088;2023-05-01T05:25:23;2;2;
31330;PMS5003;34067;39.548;-76.088;2023-05-01T05:27:51;3;3;
31330;PMS5003;34067;39.548;-76.088;2023-05-01T05:30:19;3;3;
31330;PMS5003;34067;39.548;-76.088;2023-05-01T05:32:47;3;3;
31330;PMS5003;34067;39.548;-76.088;2023-05-01T05:35:15;2;2;
31330;PMS5003;34067;39.548;-76.088;2023-05-01T05:37:43;2;2;
31330;PMS5003;34067;39.548;-76.088;2023-05-01T05:40:12;2;2;
31330;PMS5003;34067;39.548;-76.088;2023-05-01T05:42:40;2;2;
31330;PMS5003;34067;39.548;-76.088;2023-05-01T05:45:09;3;3;
31330;PMS5003;34067;39.548;-76.088;2023-05-01T05:47:37;2;2;
31330;PMS5003;34067;39.548;-76.088;2023-05-01T05:50:05;2;2;
31330;PMS5003;34067;39.548;-76.088;2023-05-01T05:52:34;2;2;
31330;PMS5003;34067;39.548;-76.088;2023-05-01T05:55:02;2;2;
31330;PMS5003;34067;39.548;-76.088;2023-05-01T05:57:30;2;2;
31330;PMS5003;34067;39.548;-76.088;2023-05-01T05:59:58;6;5;
31330;PMS5003;34067;39.548;-76.088;2023-05-01T06:02:26;6;6;
31330;PMS5003;34067;39.548;-76.088;2023-05-01T06:04:55;4;4;
31330;PMS5003;34067;39.548;-76.088;2023-05-01T06:07:22;2;2;
31330;PMS5003;34067;39.548;-76.088;2023-05-01T06:09:50;2;2;
31330;PMS5003;34067;39.548;-76.088;2023-05-01T06:12:19;3;3;
31330;PMS5003;34067;39.548;-76.088;2023-05-01T06:14:47;3;2;
31330;PMS5003;34067;39.548;-76.088;2023-05-01T06:17:15;2;2;
31330;PMS5003;34067;39.548;-76.088;2023-05-01T06:19:43;3;3;
31330;PMS5003;34067;39.548;-76.088;2023-05-01T06:22:11;4;4;
31330;PMS5003;34067;39.548;-76.088;2023-05-01T06:24:39;3;3;
31330;PMS5003;34067;39.548;-76.088;2023-05-01T06:27:07;3;3;
31330;PMS5003;34067;39.548;-76.088;2023-05-01T06:29:36;2;2;
31330;PMS5003;34067;39.548;-76.088;2023-05-01T06:32:04;2;2;
31330;PMS5003;34067;39.548;-76.088;2023-05-01T06:34:32;4;4;
31330;PMS5003;34067;39.548;-76.088;2023-05-01T06:37:00;4;4;
31330;PMS5003;34067;39.548;-76.088;2023-05-01T06:39:28;3;2;
31330;PMS5003;34067;39.548;-76.088;2023-05-01T06:41:55;3;3;
31330;PMS5003;34067;39.548;-76.088;2023-05-01T06:44:23;3;3;
31330;PMS5003;34067;39.548;-76.088;2023-05-01T06:46:52;4;4;
31330;PMS5003;34067;39.548;-76.088;2023-05-01T06:49:20;3;3;
31330;PMS5003;34067;39.548;-76.088;2023-05-01T06:51:48;3;3;
31330;PMS5003;34067;39.548;-76.088;2023-05-01T06:54:16;2;2;
31330;PMS5003;34067;39.548;-76.088;2023-05-01T06:56:44;2;2;
31330;PMS5003;34067;39.548;-76.088;2023-05-01T06:59:12;3;3;
31330;PMS5003;34067;39.548;-76.088;2023-05-01T07:01:41;3;3;
31330;PMS5003;34067;39.548;-76.088;2023-05-01T07:04:09;3;3;
31330;PMS5003;34067;39.548;-76.088;2023-05-01T07:06:37;3;3;
31330;PMS5003;34067;39.548;-76.088;2023-05-01T07:09:05;3;3;
31330;PMS5003;34067;39.548;-76.088;2023-05-01T07:11:33;3;3;
31330;PMS5003;34067;39.548;-76.088;2023-05-01T07:14:01;3;3;
31330;PMS5003;34067;39.548;-76.088;2023-05-01T07:16:29;3;3;
31330;PMS5003;34067;39.548;-76.088;2023-05-01T07:18:57;2;2;
31330;PMS5003;34067;39.548;-76.088;2023-05-01T07:21:26;3;3;
31330;PMS5003;34067;39.548;-76.088;2023-05-01T07:23:54;2;2;
31330;PMS5003;34067;39.548;-76.088;2023-05-01T07:26:23;3;3;
31330;PMS5003;34067;39.548;-76.088;2023-05-01T07:28:52;4;3;
31330;PMS5003;34067;39.548;-76.088;2023-05-01T07:31:20;4;3;
31330;PMS5003;34067;39.548;-76.088;2023-05-01T07:33:48;3;3;
31330;PMS5003;34067;39.548;-76.088;2023-05-01T07:36:16;3;3;
31330;PMS5003;34067;39.548;-76.088;2023-05-01T07:38:45;3;3;
31330;PMS5003;34067;39.548;-76.088;2023-05-01T07:41:14;2;2;
31330;PMS5003;34067;39.548;-76.088;2023-05-01T07:43:41;3;3;
31330;PMS5003;34067;39.548;-76.088;2023-05-01T07:46:10;3;3;
31330;PMS5003;34067;39.548;-76.088;2023-05-01T07:48:38;3;3;
31330;PMS5003;34067;39.548;-76.088;2023-05-01T07:51:06;4;4;
31330;PMS5003;34067;39.548;-76.088;2023-05-01T07:53:34;3;3;
31330;PMS5003;34067;39.548;-76.088;2023-05-01T07:56:04;3;3;
31330;PMS5003;34067;39.548;-76.088;2023-05-01T07:58:32;5;5;
31330;PMS5003;34067;39.548;-76.088;2023-05-01T08:01:00;4;3;
31330;PMS5003;34067;39.548;-76.088;2023-05-01T08:03:28;2;2;
31330;PMS5003;34067;39.548;-76.088;2023-05-01T08:05:57;2;2;
31330;PMS5003;34067;39.548;-76.088;2023-05-01T08:08:25;2;2;
31330;PMS5003;34067;39.548;-76.088;2023-05-01T08:10:53;3;2;
31330;PMS5003;34067;39.548;-76.088;2023-05-01T08:13:21;2;2;
31330;PMS5003;34067;39.548;-76.088;2023-05-01T08:15:49;3;3;
31330;PMS5003;34067;39.548;-76.088;2023-05-01T08:18:17;2;2;
31330;PMS5003;34067;39.548;-76.088;2023-05-01T08:20:46;3;3;
31330;PMS5003;34067;39.548;-76.088;2023-05-01T08:23:14;2;2;
31330;PMS5003;34067;39.548;-76.088;2023-05-01T08:25:42;3;3;
31330;PMS5003;34067;39.548;-76.088;2023-05-01T08:28:10;3;2;
31330;PMS5003;34067;39.548;-76.088;2023-05-01T08:30:38;2;2;
31330;PMS5003;34067;39.548;-76.088;2023-05-01T08:33:06;2;2;
31330;PMS5003;34067;39.548;-76.088;2023-05-01T08:35:34;2;2;
31330;PMS5003;34067;39.548;-76.088;2023-05-01T08:38:02;2;2;
31330;PMS5003;34067;39.548;-76.088;2023-05-01T08:40:31;3;3;
31330;PMS5003;34067;39.548;-76.088;2023-05-01T08:43:03;3;3;
31330;PMS5003;34067;39.548;-76.088;2023-05-01T08:45:31;3;3;
31330;PMS5003;34067;39.548;-76.088;2023-05-01T08:48:02;3;2;
31330;PMS5003;34067;39.548;-76.088;2023-05-01T08:50:32;3;3;
31330;PMS5003;34067;39.548;-76.088;2023-05-01T08:53:00;2;2;
31330;PMS5003;34067;39.548;-76.088;2023-05-01T08:55:29;3;3;
31330;PMS5003;34067;39.548;-76.088;2023-05-01T08:58:00;3;3;
31330;PMS5003;34067;39.548;-76.088;2023-05-01T09:00:29;4;4;
31330;PMS5003;34067;39.548;-76.088;2023-05-01T09:02:59;3;3;
31330;PMS5003;34067;39.548;-76.088;2023-05-01T09:05:29;3;3;
31330;PMS5003;34067;39.548;-76.088;2023-05-01T09:07:58;4;4;
31330;PMS5003;34067;39.548;-76.088;2023-05-01T09:10:28;3;3;
31330;PMS5003;34067;39.548;-76.088;2023-05-01T09:12:56;3;3;
31330;PMS5003;34067;39.548;-76.088;2023-05-01T09:15:27;3;3;
31330;PMS5003;34067;39.548;-76.088;2023-05-01T09:17:56;3;3;
31330;PMS5003;34067;39.548;-76.088;2023-05-01T09:20:25;4;4;
31330;PMS5003;34067;39.548;-76.088;2023-05-01T09:22:54;3;3;
31330;PMS5003;34067;39.548;-76.088;2023-05-01T09:25:22;4;4;
31330;PMS5003;34067;39.548;-76.088;2023-05-01T09:27:50;5;5;
31330;PMS5003;34067;39.548;-76.088;2023-05-01T09:30:34;6;6;
31330;PMS5003;34067;39.548;-76.088;2023-05-01T09:33:04;3;3;
31330;PMS5003;34067;39.548;-76.088;2023-05-01T09:35:38;2;2;
31330;PMS5003;34067;39.548;-76.088;2023-05-01T09:38:16;1;1;
31330;PMS5003;34067;39.548;-76.088;2023-05-01T09:40:45;2;2;
31330;PMS5003;34067;39.548;-76.088;2023-05-01T09:43:13;3;3;
31330;PMS5003;34067;39.548;-76.088;2023-05-01T09:45:58;1;1;
31330;PMS5003;34067;39.548;-76.088;2023-05-01T09:48:27;2;2;
31330;PMS5003;34067;39.548;-76.088;2023-05-01T09:50:55;2;2;
31330;PMS5003;34067;39.548;-76.088;2023-05-01T09:53:32;2;2;
31330;PMS5003;34067;39.548;-76.088;2023-05-01T09:56:03;2;2;
31330;PMS5003;34067;39.548;-76.088;2023-05-01T09:58:31;3;3;
31330;PMS5003;34067;39.548;-76.088;2023-05-01T10:00:59;1;1;
31330;PMS5003;34067;39.548;-76.088;2023-05-01T10:03:29;3;2;
31330;PMS5003;34067;39.548;-76.088;2023-05-01T10:05:56;1;1;
31330;PMS5003;34067;39.548;-76.088;2023-05-01T10:08:25;2;2;
31330;PMS5003;34067;39.548;-76.088;2023-05-01T10:11:01;2;2;
31330;PMS5003;34067;39.548;-76.088;2023-05-01T10:13:30;2;2;
31330;PMS5003;34067;39.548;-76.088;2023-05-01T10:15:58;3;3;
31330;PMS5003;34067;39.548;-76.088;2023-05-01T10:18:26;2;2;
31330;PMS5003;34067;39.548;-76.088;2023-05-01T10:20:55;2;2;
31330;PMS5003;34067;39.548;-76.088;2023-05-01T10:23:23;2;2;
31330;PMS5003;34067;39.548;-76.088;2023-05-01T10:25:51;3;2;
31330;PMS5003;34067;39.548;-76.088;2023-05-01T10:28:20;2;2;
31330;PMS5003;34067;39.548;-76.088;2023-05-01T10:30:48;2;2;
31330;PMS5003;34067;39.548;-76.088;2023-05-01T10:33:16;2;2;
31330;PMS5003;34067;39.548;-76.088;2023-05-01T10:35:45;2;2;
31330;PMS5003;34067;39.548;-76.088;2023-05-01T10:38:21;2;2;
31330;PMS5003;34067;39.548;-76.088;2023-05-01T10:40:53;13;12;
31330;PMS5003;34067;39.548;-76.088;2023-05-01T10:43:21;13;13;
31330;PMS5003;34067;39.548;-76.088;2023-05-01T10:45:50;11;11;
31330;PMS5003;34067;39.548;-76.088;2023-05-01T10:49:07;11;11;
31330;PMS5003;34067;39.548;-76.088;2023-05-01T10:51:35;9;9;
31330;PMS5003;34067;39.548;-76.088;2023-05-01T10:54:24;10;10;
31330;PMS5003;34067;39.548;-76.088;2023-05-01T10:56:53;8;8;
31330;PMS5003;34067;39.548;-76.088;2023-05-01T10:59:22;10;10;
31330;PMS5003;34067;39.548;-76.088;2023-05-01T11:01:51;10;10;
31330;PMS5003;34067;39.548;-76.088;2023-05-01T11:04:50;11;11;
31330;PMS5003;34067;39.548;-76.088;2023-05-01T11:07:20;9;9;
31330;PMS5003;34067;39.548;-76.088;2023-05-01T11:09:49;5;5;
31330;PMS5003;34067;39.548;-76.088;2023-05-01T11:13:08;3;3;
31330;PMS5003;34067;39.548;-76.088;2023-05-01T11:15:35;3;3;
31330;PMS5003;34067;39.548;-76.088;2023-05-01T11:18:03;5;4;
31330;PMS5003;34067;39.548;-76.088;2023-05-01T11:20:48;3;2;
31330;PMS5003;34067;39.548;-76.088;2023-05-01T11:23:17;2;2;
31330;PMS5003;34067;39.548;-76.088;2023-05-01T11:25:46;4;3;
31330;PMS5003;34067;39.548;-76.088;2023-05-01T11:28:18;3;3;
31330;PMS5003;34067;39.548;-76.088;2023-05-01T11:30:46;4;4;
31330;PMS5003;34067;39.548;-76.088;2023-05-01T11:33:20;4;3;
31330;PMS5003;34067;39.548;-76.088;2023-05-01T11:35:55;3;3;
31330;PMS5003;34067;39.548;-76.088;2023-05-01T11:38:25;2;2;
31330;PMS5003;34067;39.548;-76.088;2023-05-01T11:40:54;1;1;
31330;PMS5003;34067;39.548;-76.088;2023-05-01T11:43:25;3;2;
31330;PMS5003;34067;39.548;-76.088;2023-05-01T11:45:53;2;2;
31330;PMS5003;34067;39.548;-76.088;2023-05-01T11:48:22;2;2;
31330;PMS5003;34067;39.548;-76.088;2023-05-01T11:50:50;3;3;
31330;PMS5003;34067;39.548;-76.088;2023-05-01T11:53:18;2;2;
31330;PMS5003;34067;39.548;-76.088;2023-05-01T11:55:46;4;4;
31330;PMS5003;34067;39.548;-76.088;2023-05-01T11:58:14;2;2;
31330;PMS5003;34067;39.548;-76.088;2023-05-01T12:00:42;2;2;
31330;PMS5003;34067;39.548;-76.088;2023-05-01T12:03:11;2;2;
31330;PMS5003;34067;39.548;-76.088;2023-05-01T12:05:41;3;2;
31330;PMS5003;34067;39.548;-76.088;2023-05-01T12:08:10;1;1;
31330;PMS5003;34067;39.548;-76.088;2023-05-01T12:10:41;3;3;
31330;PMS5003;34067;39.548;-76.088;2023-05-01T12:13:10;3;3;
31330;PMS5003;34067;39.548;-76.088;2023-05-01T12:15:40;1;1;
31330;PMS5003;34067;39.548;-76.088;2023-05-01T12:18:10;2;2;
31330;PMS5003;34067;39.548;-76.088;2023-05-01T12:20:39;2;2;
31330;PMS5003;34067;39.548;-76.088;2023-05-01T12:23:08;1;1;
31330;PMS5003;34067;39.548;-76.088;2023-05-01T12:25:38;2;2;
31330;PMS5003;34067;39.548;-76.088;2023-05-01T12:28:07;2;2;
31330;PMS5003;34067;39.548;-76.088;2023-05-01T12:30:37;1;1;
31330;PMS5003;34067;39.548;-76.088;2023-05-01T12:33:07;1;1;
31330;PMS5003;34067;39.548;-76.088;2023-05-01T12:35:37;2;2;
31330;PMS5003;34067;39.548;-76.088;2023-05-01T12:38:10;3;2;
31330;PMS5003;34067;39.548;-76.088;2023-05-01T12:40:39;1;1;
31330;PMS5003;34067;39.548;-76.088;2023-05-01T12:43:16;2;2;
31330;PMS5003;34067;39.548;-76.088;2023-05-01T12:45:44;1;1;
31330;PMS5003;34067;39.548;-76.088;2023-05-01T12:48:14;1;1;
31330;PMS5003;34067;39.548;-76.088;2023-05-01T12:50:42;1;1;
31330;PMS5003;34067;39.548;-76.088;2023-05-01T12:53:10;2;2;
31330;PMS5003;34067;39.548;-76.088;2023-05-01T12:55:42;1;1;
31330;PMS5003;34067;39.548;-76.088;2023-05-01T12:58:10;2;2;
31330;PMS5003;34067;39.548;-76.088;2023-05-01T13:00:42;1;1;
31330;PMS5003;34067;39.548;-76.088;2023-05-01T13:03:11;0;0;
31330;PMS5003;34067;39.548;-76.088;2023-05-01T13:05:48;1;1;
31330;PMS5003;34067;39.548;-76.088;2023-05-01T13:08:27;1;1;
31330;PMS5003;34067;39.548;-76.088;2023-05-01T13:10:57;2;2;
31330;PMS5003;34067;39.548;-76.088;2023-05-01T13:13:27;1;1;
31330;PMS5003;34067;39.548;-76.088;2023-05-01T13:16:04;2;2;
31330;PMS5003;34067;39.548;-76.088;2023-05-01T13:18:41;1;1;
31330;PMS5003;34067;39.548;-76.088;2023-05-01T13:21:11;1;1;
31330;PMS5003;34067;39.548;-76.088;2023-05-01T13:23:41;1;1;
31330;PMS5003;34067;39.548;-76.088;2023-05-01T13:26:23;2;1;
31330;PMS5003;34067;39.548;-76.088;2023-05-01T13:28:52;1;1;
31330;PMS5003;34067;39.548;-76.088;2023-05-01T13:31:20;1;1;
31330;PMS5003;34067;39.548;-76.088;2023-05-01T13:33:49;1;1;
31330;PMS5003;34067;39.548;-76.088;2023-05-01T13:36:18;0;0;
31330;PMS5003;34067;39.548;-76.088;2023-05-01T13:38:48;1;0;
31330;PMS5003;34067;39.548;-76.088;2023-05-01T13:41:18;1;1;
31330;PMS5003;34067;39.548;-76.088;2023-05-01T13:43:46;1;1;
31330;PMS5003;34067;39.548;-76.088;2023-05-01T13:46:16;1;1;
31330;PMS5003;34067;39.548;-76.088;2023-05-01T13:48:46;1;1;
31330;PMS5003;34067;39.548;-76.088;2023-05-01T13:51:19;1;1;
31330;PMS5003;34067;39.548;-76.088;2023-05-01T13:53:48;24;24;
31330;PMS5003;34067;39.548;-76.088;2023-05-01T13:56:16;7;6;
31330;PMS5003;34067;39.548;-76.088;2023-05-01T13:58:44;0;0;
31330;PMS5003;34067;39.548;-76.088;2023-05-01T14:01:13;0;0;
31330;PMS5003;34067;39.548;-76.088;2023-05-01T14:03:42;1;1;
31330;PMS5003;34067;39.548;-76.088;2023-05-01T14:06:10;0;0;
31330;PMS5003;34067;39.548;-76.088;2023-05-01T14:08:40;1;1;
31330;PMS5003;34067;39.548;-76.088;2023-05-01T14:11:09;1;1;
31330;PMS5003;34067;39.548;-76.088;2023-05-01T14:13:39;1;1;
31330;PMS5003;34067;39.548;-76.088;2023-05-01T14:16:09;0;0;
31330;PMS5003;34067;39.548;-76.088;2023-05-01T14:18:51;0;0;
31330;PMS5003;34067;39.548;-76.088;2023-05-01T14:21:20;1;1;
31330;PMS5003;34067;39.548;-76.088;2023-05-01T14:23:50;1;1;
31330;PMS5003;34067;39.548;-76.088;2023-05-01T14:26:19;1;1;
31330;PMS5003;34067;39.548;-76.088;2023-05-01T14:28:47;1;1;
31330;PMS5003;34067;39.548;-76.088;2023-05-01T14:31:16;1;1;
31330;PMS5003;34067;39.548;-76.088;2023-05-01T14:33:55;1;1;
31330;PMS5003;34067;39.548;-76.088;2023-05-01T14:36:24;4;4;
31330;PMS5003;34067;39.548;-76.088;2023-05-01T14:38:54;6;6;
31330;PMS5003;34067;39.548;-76.088;2023-05-01T14:41:23;9;9;
31330;PMS5003;34067;39.548;-76.088;2023-05-01T14:43:51;11;11;
31330;PMS5003;34067;39.548;-76.088;2023-05-01T14:46:24;10;10;
31330;PMS5003;34067;39.548;-76.088;2023-05-01T14:48:55;5;5;
31330;PMS5003;34067;39.548;-76.088;2023-05-01T14:51:23;2;2;
31330;PMS5003;34067;39.548;-76.088;2023-05-01T14:53:51;1;1;
31330;PMS5003;34067;39.548;-76.088;2023-05-01T14:56:20;2;1;
31330;PMS5003;34067;39.548;-76.088;2023-05-01T14:58:48;0;0;
31330;PMS5003;34067;39.548;-76.088;2023-05-01T15:01:16;1;1;
31330;PMS5003;34067;39.548;-76.088;2023-05-01T15:03:44;1;1;
31330;PMS5003;34067;39.548;-76.088;2023-05-01T15:06:12;1;1;
31330;PMS5003;34067;39.548;-76.088;2023-05-01T15:08:40;1;1;
31330;PMS5003;34067;39.548;-76.088;2023-05-01T15:11:09;2;2;
31330;PMS5003;34067;39.548;-76.088;2023-05-01T15:13:39;17;16;
31330;PMS5003;34067;39.548;-76.088;2023-05-01T15:16:07;5;5;
31330;PMS5003;34067;39.548;-76.088;2023-05-01T15:18:36;7;7;
31330;PMS5003;34067;39.548;-76.088;2023-05-01T15:21:04;4;4;
31330;PMS5003;34067;39.548;-76.088;2023-05-01T15:23:32;0;0;
31330;PMS5003;34067;39.548;-76.088;2023-05-01T15:26:00;2;2;
31330;PMS5003;34067;39.548;-76.088;2023-05-01T15:28:28;2;2;
31330;PMS5003;34067;39.548;-76.088;2023-05-01T15:30:57;2;2;
31330;PMS5003;34067;39.548;-76.088;2023-05-01T15:33:25;4;3;
31330;PMS5003;34067;39.548;-76.088;2023-05-01T15:35:53;2;2;
31330;PMS5003;34067;39.548;-76.088;2023-05-01T15:38:21;1;1;
31330;PMS5003;34067;39.548;-76.088;2023-05-01T15:40:49;1;1;
31330;PMS5003;34067;39.548;-76.088;2023-05-01T15:43:17;1;1;
31330;PMS5003;34067;39.548;-76.088;2023-05-01T15:45:45;1;1;
31330;PMS5003;34067;39.548;-76.088;2023-05-01T15:48:13;2;2;
31330;PMS5003;34067;39.548;-76.088;2023-05-01T15:50:41;1;1;
31330;PMS5003;34067;39.548;-76.088;2023-05-01T15:53:09;2;2;
31330;PMS5003;34067;39.548;-76.088;2023-05-01T15:55:37;1;1;
31330;PMS5003;34067;39.548;-76.088;2023-05-01T15:58:05;2;2;
31330;PMS5003;34067;39.548;-76.088;2023-05-01T16:00:33;0;0;
31330;PMS5003;34067;39.548;-76.088;2023-05-01T16:03:01;0;0;
31330;PMS5003;34067;39.548;-76.088;2023-05-01T16:05:29;0;0;
31330;PMS5003;34067;39.548;-76.088;2023-05-01T16:07:59;1;1;
31330;PMS5003;34067;39.548;-76.088;2023-05-01T16:10:26;0;0;
31330;PMS5003;34067;39.548;-76.088;2023-05-01T16:12:54;1;1;
31330;PMS5003;34067;39.548;-76.088;2023-05-01T16:15:22;2;1;
31330;PMS5003;34067;39.548;-76.088;2023-05-01T16:17:50;0;0;
31330;PMS5003;34067;39.548;-76.088;2023-05-01T16:20:19;3;3;
31330;PMS5003;34067;39.548;-76.088;2023-05-01T16:22:48;2;1;
31330;PMS5003;34067;39.548;-76.088;2023-05-01T16:25:16;1;1;
31330;PMS5003;34067;39.548;-76.088;2023-05-01T16:27:44;1;1;
31330;PMS5003;34067;39.548;-76.088;2023-05-01T16:30:12;1;0;
31330;PMS5003;34067;39.548;-76.088;2023-05-01T16:32:40;1;1;
31330;PMS5003;34067;39.548;-76.088;2023-05-01T16:35:09;0;0;